sensor_id;sensor_type;location;lat;lon;timestamp;P1;durP1;ratioP1;P2;durP2;ratioP2
22470;SDS011;11402;51.374;6.594;2023-11-21T00:00:35;3.38;;;2.55;;
22470;SDS011;11402;51.374;6.594;2023-11-21T00:03:01;2.83;;;2.38;;
22470;SDS011;11402;51.374;6.594;2023-11-21T00:05:27;1.38;;;1.10;;
22470;SDS011;11402;51.374;6.594;2023-11-21T00:07:53;1.02;;;1.00;;
22470;SDS011;11402;51.374;6.594;2023-11-21T00:10:19;1.30;;;0.90;;
22470;SDS011;11402;51.374;6.594;2023-11-21T00:12:45;0.80;;;0.80;;
22470;SDS011;11402;51.374;6.594;2023-11-21T00:15:13;0.90;;;0.70;;
22470;SDS011;11402;51.374;6.594;2023-11-21T00:17:39;1.35;;;0.70;;
22470;SDS011;11402;51.374;6.594;2023-11-21T00:20:05;5.28;;;3.90;;
22470;SDS011;11402;51.374;6.594;2023-11-21T00:22:35;5.25;;;4.00;;
22470;SDS011;11402;51.374;6.594;2023-11-21T00:25:01;4.00;;;3.60;;
22470;SDS011;11402;51.374;6.594;2023-11-21T00:27:29;5.03;;;3.83;;
22470;SDS011;11402;51.374;6.594;2023-11-21T00:29:55;5.13;;;3.80;;
22470;SDS011;11402;51.374;6.594;2023-11-21T00:32:21;3.17;;;2.85;;
22470;SDS011;11402;51.374;6.594;2023-11-21T00:34:47;3.22;;;2.88;;
22470;SDS011;11402;51.374;6.594;2023-11-21T00:37:13;5.43;;;3.78;;
22470;SDS011;11402;51.374;6.594;2023-11-21T00:39:40;3.70;;;3.40;;
22470;SDS011;11402;51.374;6.594;2023-11-21T00:42:06;3.03;;;2.58;;
22470;SDS011;11402;51.374;6.594;2023-11-21T00:44:33;3.22;;;2.42;;
22470;SDS011;11402;51.374;6.594;2023-11-21T00:46:59;3.47;;;2.97;;
22470;SDS011;11402;51.374;6.594;2023-11-21T00:49:25;3.10;;;2.65;;
22470;SDS011;11402;51.374;6.594;2023-11-21T00:51:53;0.52;;;0.47;;
22470;SDS011;11402;51.374;6.594;2023-11-21T00:54:19;3.65;;;2.83;;
22470;SDS011;11402;51.374;6.594;2023-11-21T00:56:45;3.92;;;3.25;;
22470;SDS011;11402;51.374;6.594;2023-11-21T00:59:13;3.20;;;2.90;;
22470;SDS011;11402;51.374;6.594;2023-11-21T01:01:40;4.20;;;3.20;;
22470;SDS011;11402;51.374;6.594;2023-11-21T01:04:06;5.38;;;3.40;;
22470;SDS011;11402;51.374;6.594;2023-11-21T01:06:32;3.95;;;3.20;;
22470;SDS011;11402;51.374;6.594;2023-11-21T01:08:58;2.40;;;1.75;;
22470;SDS011;11402;51.374;6.594;2023-11-21T01:11:24;2.60;;;2.13;;
22470;SDS011;11402;51.374;6.594;2023-11-21T01:13:51;5.05;;;3.58;;
22470;SDS011;11402;51.374;6.594;2023-11-21T01:16:18;4.78;;;3.17;;
22470;SDS011;11402;51.374;6.594;2023-11-21T01:18:44;4.85;;;2.45;;
22470;SDS011;11402;51.374;6.594;2023-11-21T01:21:10;4.65;;;3.72;;
22470;SDS011;11402;51.374;6.594;2023-11-21T01:23:37;5.40;;;4.20;;
22470;SDS011;11402;51.374;6.594;2023-11-21T01:26:03;4.25;;;3.67;;
22470;SDS011;11402;51.374;6.594;2023-11-21T01:28:29;4.15;;;3.75;;
22470;SDS011;11402;51.374;6.594;2023-11-21T01:30:55;5.20;;;4.20;;
22470;SDS011;11402;51.374;6.594;2023-11-21T01:33:21;4.75;;;4.25;;
22470;SDS011;11402;51.374;6.594;2023-11-21T01:35:48;5.05;;;4.28;;
22470;SDS011;11402;51.374;6.594;2023-11-21T01:38:15;5.15;;;3.95;;
22470;SDS011;11402;51.374;6.594;2023-11-21T01:40:42;5.65;;;4.20;;
22470;SDS011;11402;51.374;6.594;2023-11-21T01:43:08;3.90;;;3.50;;
22470;SDS011;11402;51.374;6.594;2023-11-21T01:45:34;4.25;;;3.75;;
22470;SDS011;11402;51.374;6.594;2023-11-21T01:48:00;3.90;;;3.47;;
22470;SDS011;11402;51.374;6.594;2023-11-21T01:50:28;2.75;;;2.40;;
22470;SDS011;11402;51.374;6.594;2023-11-21T01:52:54;0.47;;;0.47;;
22470;SDS011;11402;51.374;6.594;2023-11-21T01:55:20;3.70;;;3.40;;
22470;SDS011;11402;51.374;6.594;2023-11-21T01:57:46;4.78;;;4.30;;
22470;SDS011;11402;51.374;6.594;2023-11-21T02:00:13;4.57;;;3.78;;
22470;SDS011;11402;51.374;6.594;2023-11-21T02:02:42;5.75;;;4.15;;
22470;SDS011;11402;51.374;6.594;2023-11-21T02:05:09;4.10;;;3.70;;
22470;SDS011;11402;51.374;6.594;2023-11-21T02:07:35;3.97;;;3.50;;
22470;SDS011;11402;51.374;6.594;2023-11-21T02:10:02;3.42;;;3.03;;
22470;SDS011;11402;51.374;6.594;2023-11-21T02:12:29;2.53;;;2.17;;
22470;SDS011;11402;51.374;6.594;2023-11-21T02:14:55;7.25;;;5.20;;
22470;SDS011;11402;51.374;6.594;2023-11-21T02:17:21;5.13;;;4.63;;
22470;SDS011;11402;51.374;6.594;2023-11-21T02:19:47;6.97;;;5.30;;
22470;SDS011;11402;51.374;6.594;2023-11-21T02:22:16;4.68;;;4.28;;
22470;SDS011;11402;51.374;6.594;2023-11-21T02:24:42;5.57;;;4.85;;
22470;SDS011;11402;51.374;6.594;2023-11-21T02:27:08;7.47;;;5.45;;
22470;SDS011;11402;51.374;6.594;2023-11-21T02:29:35;5.93;;;5.18;;
22470;SDS011;11402;51.374;6.594;2023-11-21T02:32:01;5.60;;;5.00;;
22470;SDS011;11402;51.374;6.594;2023-11-21T02:34:27;6.65;;;5.13;;
22470;SDS011;11402;51.374;6.594;2023-11-21T02:36:53;4.95;;;4.07;;
22470;SDS011;11402;51.374;6.594;2023-11-21T02:39:19;3.72;;;2.92;;
22470;SDS011;11402;51.374;6.594;2023-11-21T02:41:47;3.10;;;2.63;;
22470;SDS011;11402;51.374;6.594;2023-11-21T02:44:13;4.53;;;4.10;;
22470;SDS011;11402;51.374;6.594;2023-11-21T02:46:39;4.93;;;3.80;;
22470;SDS011;11402;51.374;6.594;2023-11-21T02:49:05;4.30;;;3.53;;
22470;SDS011;11402;51.374;6.594;2023-11-21T02:51:32;4.45;;;3.30;;
22470;SDS011;11402;51.374;6.594;2023-11-21T02:53:58;1.00;;;0.85;;
22470;SDS011;11402;51.374;6.594;2023-11-21T02:56:25;3.67;;;3.30;;
22470;SDS011;11402;51.374;6.594;2023-11-21T02:58:51;4.15;;;2.35;;
22470;SDS011;11402;51.374;6.594;2023-11-21T03:01:18;4.25;;;3.42;;
22470;SDS011;11402;51.374;6.594;2023-11-21T03:03:44;4.28;;;3.30;;
22470;SDS011;11402;51.374;6.594;2023-11-21T03:06:10;2.65;;;2.38;;
22470;SDS011;11402;51.374;6.594;2023-11-21T03:08:36;1.05;;;0.95;;
22470;SDS011;11402;51.374;6.594;2023-11-21T03:11:02;3.78;;;3.33;;
22470;SDS011;11402;51.374;6.594;2023-11-21T03:13:28;4.93;;;4.25;;
22470;SDS011;11402;51.374;6.594;2023-11-21T03:15:54;5.13;;;4.28;;
22470;SDS011;11402;51.374;6.594;2023-11-21T03:18:20;4.18;;;3.78;;
22470;SDS011;11402;51.374;6.594;2023-11-21T03:20:47;4.25;;;3.85;;
22470;SDS011;11402;51.374;6.594;2023-11-21T03:23:13;4.30;;;3.90;;
22470;SDS011;11402;51.374;6.594;2023-11-21T03:25:40;4.15;;;3.47;;
22470;SDS011;11402;51.374;6.594;2023-11-21T03:28:06;4.38;;;3.28;;
22470;SDS011;11402;51.374;6.594;2023-11-21T03:30:33;4.75;;;3.88;;
22470;SDS011;11402;51.374;6.594;2023-11-21T03:32:59;0.45;;;0.45;;
22470;SDS011;11402;51.374;6.594;2023-11-21T03:35:25;2.08;;;1.77;;
22470;SDS011;11402;51.374;6.594;2023-11-21T03:37:51;8.38;;;6.47;;
22470;SDS011;11402;51.374;6.594;2023-11-21T03:40:17;2.50;;;1.50;;
22470;SDS011;11402;51.374;6.594;2023-11-21T03:42:43;10.30;;;8.23;;
22470;SDS011;11402;51.374;6.594;2023-11-21T03:45:09;9.30;;;8.00;;
22470;SDS011;11402;51.374;6.594;2023-11-21T03:47:37;9.35;;;8.15;;
22470;SDS011;11402;51.374;6.594;2023-11-21T03:50:03;7.30;;;6.43;;
22470;SDS011;11402;51.374;6.594;2023-11-21T03:52:29;7.88;;;7.07;;
22470;SDS011;11402;51.374;6.594;2023-11-21T03:54:55;7.38;;;6.22;;
22470;SDS011;11402;51.374;6.594;2023-11-21T03:57:21;7.88;;;6.28;;
22470;SDS011;11402;51.374;6.594;2023-11-21T03:59:47;6.75;;;5.97;;
22470;SDS011;11402;51.374;6.594;2023-11-21T04:02:13;7.38;;;6.45;;
22470;SDS011;11402;51.374;6.594;2023-11-21T04:04:39;7.78;;;6.20;;
22470;SDS011;11402;51.374;6.594;2023-11-21T04:07:05;6.40;;;5.53;;
22470;SDS011;11402;51.374;6.594;2023-11-21T04:09:31;6.95;;;6.25;;
22470;SDS011;11402;51.374;6.594;2023-11-21T04:11:57;6.93;;;6.22;;
22470;SDS011;11402;51.374;6.594;2023-11-21T04:14:23;6.43;;;5.82;;
22470;SDS011;11402;51.374;6.594;2023-11-21T04:16:49;4.53;;;4.13;;
22470;SDS011;11402;51.374;6.594;2023-11-21T04:19:15;3.70;;;3.40;;
22470;SDS011;11402;51.374;6.594;2023-11-21T04:21:42;4.85;;;4.40;;
22470;SDS011;11402;51.374;6.594;2023-11-21T04:24:08;5.22;;;4.63;;
22470;SDS011;11402;51.374;6.594;2023-11-21T04:26:34;5.70;;;4.80;;
22470;SDS011;11402;51.374;6.594;2023-11-21T04:29:00;5.47;;;4.70;;
22470;SDS011;11402;51.374;6.594;2023-11-21T04:31:26;4.60;;;4.20;;
22470;SDS011;11402;51.374;6.594;2023-11-21T04:33:52;4.53;;;4.10;;
22470;SDS011;11402;51.374;6.594;2023-11-21T04:36:18;5.32;;;4.15;;
22470;SDS011;11402;51.374;6.594;2023-11-21T04:38:44;5.65;;;3.80;;
22470;SDS011;11402;51.374;6.594;2023-11-21T04:41:10;4.13;;;3.72;;
22470;SDS011;11402;51.374;6.594;2023-11-21T04:43:37;4.13;;;3.70;;
22470;SDS011;11402;51.374;6.594;2023-11-21T04:46:03;3.85;;;3.40;;
22470;SDS011;11402;51.374;6.594;2023-11-21T04:48:29;2.42;;;1.77;;
22470;SDS011;11402;51.374;6.594;2023-11-21T04:50:55;5.05;;;4.13;;
22470;SDS011;11402;51.374;6.594;2023-11-21T04:53:21;0.00;;;0.00;;
22470;SDS011;11402;51.374;6.594;2023-11-21T04:55:47;0.00;;;0.00;;
22470;SDS011;11402;51.374;6.594;2023-11-21T04:58:13;11.60;;;8.52;;
22470;SDS011;11402;51.374;6.594;2023-11-21T05:00:39;9.75;;;8.00;;
22470;SDS011;11402;51.374;6.594;2023-11-21T05:03:06;10.52;;;8.35;;
22470;SDS011;11402;51.374;6.594;2023-11-21T05:05:32;11.52;;;8.20;;
22470;SDS011;11402;51.374;6.594;2023-11-21T05:07:59;2.40;;;2.20;;
22470;SDS011;11402;51.374;6.594;2023-11-21T05:10:26;11.48;;;9.48;;
22470;SDS011;11402;51.374;6.594;2023-11-21T05:12:52;5.50;;;4.70;;
22470;SDS011;11402;51.374;6.594;2023-11-21T05:15:18;5.43;;;3.85;;
22470;SDS011;11402;51.374;6.594;2023-11-21T05:17:44;13.25;;;10.45;;
22470;SDS011;11402;51.374;6.594;2023-11-21T05:20:11;16.95;;;11.32;;
22470;SDS011;11402;51.374;6.594;2023-11-21T05:22:38;18.80;;;12.00;;
22470;SDS011;11402;51.374;6.594;2023-11-21T05:25:04;18.30;;;12.38;;
22470;SDS011;11402;51.374;6.594;2023-11-21T05:27:32;20.30;;;13.45;;
22470;SDS011;11402;51.374;6.594;2023-11-21T05:29:58;18.02;;;12.30;;
22470;SDS011;11402;51.374;6.594;2023-11-21T05:32:24;19.40;;;12.85;;
22470;SDS011;11402;51.374;6.594;2023-11-21T05:34:51;19.25;;;12.45;;
22470;SDS011;11402;51.374;6.594;2023-11-21T05:37:17;20.02;;;13.63;;
22470;SDS011;11402;51.374;6.594;2023-11-21T05:39:43;19.10;;;13.50;;
22470;SDS011;11402;51.374;6.594;2023-11-21T05:42:09;17.35;;;13.82;;
22470;SDS011;11402;51.374;6.594;2023-11-21T05:44:36;21.17;;;13.82;;
22470;SDS011;11402;51.374;6.594;2023-11-21T05:47:02;21.13;;;13.95;;
22470;SDS011;11402;51.374;6.594;2023-11-21T05:49:28;19.25;;;13.73;;
22470;SDS011;11402;51.374;6.594;2023-11-21T05:51:55;23.33;;;14.10;;
22470;SDS011;11402;51.374;6.594;2023-11-21T05:54:21;23.73;;;13.93;;
22470;SDS011;11402;51.374;6.594;2023-11-21T05:56:48;19.15;;;13.75;;
22470;SDS011;11402;51.374;6.594;2023-11-21T05:59:14;19.00;;;13.50;;
22470;SDS011;11402;51.374;6.594;2023-11-21T06:01:40;18.98;;;12.98;;
22470;SDS011;11402;51.374;6.594;2023-11-21T06:04:06;5.82;;;4.47;;
22470;SDS011;11402;51.374;6.594;2023-11-21T06:06:35;20.05;;;14.05;;
22470;SDS011;11402;51.374;6.594;2023-11-21T06:09:01;21.40;;;13.98;;
22470;SDS011;11402;51.374;6.594;2023-11-21T06:11:28;20.08;;;13.13;;
22470;SDS011;11402;51.374;6.594;2023-11-21T06:13:54;19.80;;;13.40;;
22470;SDS011;11402;51.374;6.594;2023-11-21T06:16:20;20.77;;;13.85;;
22470;SDS011;11402;51.374;6.594;2023-11-21T06:18:46;21.40;;;14.02;;
22470;SDS011;11402;51.374;6.594;2023-11-21T06:21:12;22.75;;;14.63;;
22470;SDS011;11402;51.374;6.594;2023-11-21T06:23:38;23.02;;;14.23;;
22470;SDS011;11402;51.374;6.594;2023-11-21T06:26:05;22.90;;;14.63;;
22470;SDS011;11402;51.374;6.594;2023-11-21T06:28:31;22.38;;;13.75;;
22470;SDS011;11402;51.374;6.594;2023-11-21T06:30:57;20.92;;;13.68;;
22470;SDS011;11402;51.374;6.594;2023-11-21T06:33:23;16.48;;;11.82;;
22470;SDS011;11402;51.374;6.594;2023-11-21T06:35:52;17.92;;;11.88;;
22470;SDS011;11402;51.374;6.594;2023-11-21T06:38:18;16.38;;;11.40;;
22470;SDS011;11402;51.374;6.594;2023-11-21T06:40:44;18.80;;;12.75;;
22470;SDS011;11402;51.374;6.594;2023-11-21T06:43:11;18.38;;;12.95;;
22470;SDS011;11402;51.374;6.594;2023-11-21T06:45:37;17.60;;;12.40;;
22470;SDS011;11402;51.374;6.594;2023-11-21T06:48:03;19.48;;;13.18;;
22470;SDS011;11402;51.374;6.594;2023-11-21T06:50:29;20.45;;;13.48;;
22470;SDS011;11402;51.374;6.594;2023-11-21T06:52:56;18.90;;;13.63;;
22470;SDS011;11402;51.374;6.594;2023-11-21T06:55:22;20.33;;;13.75;;
22470;SDS011;11402;51.374;6.594;2023-11-21T06:57:47;17.20;;;13.15;;
22470;SDS011;11402;51.374;6.594;2023-11-21T07:00:15;18.48;;;11.65;;
22470;SDS011;11402;51.374;6.594;2023-11-21T07:02:42;25.38;;;15.82;;
22470;SDS011;11402;51.374;6.594;2023-11-21T07:05:08;27.10;;;16.50;;
22470;SDS011;11402;51.374;6.594;2023-11-21T07:07:34;27.90;;;16.38;;
22470;SDS011;11402;51.374;6.594;2023-11-21T07:10:02;32.33;;;18.15;;
22470;SDS011;11402;51.374;6.594;2023-11-21T07:12:29;27.30;;;17.58;;
22470;SDS011;11402;51.374;6.594;2023-11-21T07:14:56;27.20;;;16.63;;
22470;SDS011;11402;51.374;6.594;2023-11-21T07:17:22;20.02;;;14.40;;
22470;SDS011;11402;51.374;6.594;2023-11-21T07:19:48;24.00;;;15.35;;
22470;SDS011;11402;51.374;6.594;2023-11-21T07:22:15;21.88;;;13.43;;
22470;SDS011;11402;51.374;6.594;2023-11-21T07:24:47;19.00;;;12.90;;
22470;SDS011;11402;51.374;6.594;2023-11-21T07:27:13;13.60;;;10.60;;
22470;SDS011;11402;51.374;6.594;2023-11-21T07:29:39;20.83;;;13.15;;
22470;SDS011;11402;51.374;6.594;2023-11-21T07:32:05;10.23;;;7.47;;
22470;SDS011;11402;51.374;6.594;2023-11-21T07:34:31;18.23;;;12.27;;
22470;SDS011;11402;51.374;6.594;2023-11-21T07:36:57;16.27;;;11.68;;
22470;SDS011;11402;51.374;6.594;2023-11-21T07:39:23;2.53;;;2.05;;
22470;SDS011;11402;51.374;6.594;2023-11-21T07:41:50;14.13;;;10.38;;
22470;SDS011;11402;51.374;6.594;2023-11-21T07:44:16;15.95;;;10.63;;
22470;SDS011;11402;51.374;6.594;2023-11-21T07:46:42;15.32;;;11.32;;
22470;SDS011;11402;51.374;6.594;2023-11-21T07:49:09;14.52;;;11.02;;
22470;SDS011;11402;51.374;6.594;2023-11-21T07:51:35;20.35;;;11.93;;
22470;SDS011;11402;51.374;6.594;2023-11-21T07:54:01;15.23;;;11.50;;
22470;SDS011;11402;51.374;6.594;2023-11-21T07:56:27;15.65;;;11.10;;
22470;SDS011;11402;51.374;6.594;2023-11-21T07:58:53;13.95;;;9.80;;
22470;SDS011;11402;51.374;6.594;2023-11-21T08:01:19;21.80;;;13.85;;
22470;SDS011;11402;51.374;6.594;2023-11-21T08:03:45;16.05;;;11.57;;
22470;SDS011;11402;51.374;6.594;2023-11-21T08:06:12;12.13;;;9.10;;
22470;SDS011;11402;51.374;6.594;2023-11-21T08:08:38;21.33;;;13.45;;
22470;SDS011;11402;51.374;6.594;2023-11-21T08:11:04;16.48;;;11.52;;
22470;SDS011;11402;51.374;6.594;2023-11-21T08:13:30;16.63;;;11.52;;
22470;SDS011;11402;51.374;6.594;2023-11-21T08:15:59;21.45;;;12.90;;
22470;SDS011;11402;51.374;6.594;2023-11-21T08:18:28;23.58;;;15.95;;
22470;SDS011;11402;51.374;6.594;2023-11-21T08:20:54;21.80;;;14.43;;
22470;SDS011;11402;51.374;6.594;2023-11-21T08:23:20;21.25;;;13.90;;
22470;SDS011;11402;51.374;6.594;2023-11-21T08:25:50;16.00;;;11.20;;
22470;SDS011;11402;51.374;6.594;2023-11-21T08:28:16;19.58;;;13.13;;
22470;SDS011;11402;51.374;6.594;2023-11-21T08:30:42;16.77;;;12.27;;
22470;SDS011;11402;51.374;6.594;2023-11-21T08:33:09;9.85;;;6.45;;
22470;SDS011;11402;51.374;6.594;2023-11-21T08:35:36;16.90;;;11.60;;
22470;SDS011;11402;51.374;6.594;2023-11-21T08:38:02;16.38;;;11.52;;
22470;SDS011;11402;51.374;6.594;2023-11-21T08:40:28;16.52;;;11.65;;
22470;SDS011;11402;51.374;6.594;2023-11-21T08:42:54;14.55;;;11.57;;
22470;SDS011;11402;51.374;6.594;2023-11-21T08:45:21;16.63;;;11.82;;
22470;SDS011;11402;51.374;6.594;2023-11-21T08:47:47;15.30;;;11.50;;
22470;SDS011;11402;51.374;6.594;2023-11-21T08:50:13;14.57;;;11.02;;
22470;SDS011;11402;51.374;6.594;2023-11-21T08:52:40;12.48;;;10.10;;
22470;SDS011;11402;51.374;6.594;2023-11-21T08:55:07;6.15;;;3.85;;
22470;SDS011;11402;51.374;6.594;2023-11-21T08:57:36;18.73;;;14.27;;
22470;SDS011;11402;51.374;6.594;2023-11-21T09:00:03;24.65;;;14.50;;
22470;SDS011;11402;51.374;6.594;2023-11-21T09:02:32;19.73;;;14.13;;
22470;SDS011;11402;51.374;6.594;2023-11-21T09:04:59;22.02;;;14.70;;
22470;SDS011;11402;51.374;6.594;2023-11-21T09:07:28;19.38;;;14.20;;
22470;SDS011;11402;51.374;6.594;2023-11-21T09:09:54;20.08;;;15.65;;
22470;SDS011;11402;51.374;6.594;2023-11-21T09:12:20;20.70;;;13.93;;
22470;SDS011;11402;51.374;6.594;2023-11-21T09:14:46;20.27;;;14.40;;
22470;SDS011;11402;51.374;6.594;2023-11-21T09:17:13;19.55;;;13.10;;
22470;SDS011;11402;51.374;6.594;2023-11-21T09:19:39;17.67;;;12.77;;
22470;SDS011;11402;51.374;6.594;2023-11-21T09:22:06;17.73;;;12.68;;
22470;SDS011;11402;51.374;6.594;2023-11-21T09:24:32;39.40;;;35.65;;
22470;SDS011;11402;51.374;6.594;2023-11-21T09:26:58;18.50;;;13.20;;
22470;SDS011;11402;51.374;6.594;2023-11-21T09:29:25;15.90;;;12.32;;
22470;SDS011;11402;51.374;6.594;2023-11-21T09:31:51;17.02;;;11.35;;
22470;SDS011;11402;51.374;6.594;2023-11-21T09:34:17;15.18;;;10.82;;
22470;SDS011;11402;51.374;6.594;2023-11-21T09:36:46;16.27;;;10.88;;
22470;SDS011;11402;51.374;6.594;2023-11-21T09:39:12;17.33;;;11.13;;
22470;SDS011;11402;51.374;6.594;2023-11-21T09:41:49;16.05;;;11.02;;
22470;SDS011;11402;51.374;6.594;2023-11-21T09:44:29;18.52;;;13.25;;
22470;SDS011;11402;51.374;6.594;2023-11-21T09:46:57;21.45;;;13.05;;
22470;SDS011;11402;51.374;6.594;2023-11-21T09:49:25;19.23;;;13.23;;
22470;SDS011;11402;51.374;6.594;2023-11-21T09:51:53;19.70;;;14.88;;
22470;SDS011;11402;51.374;6.594;2023-11-21T09:54:22;19.95;;;14.43;;
22470;SDS011;11402;51.374;6.594;2023-11-21T09:56:48;20.35;;;13.52;;
22470;SDS011;11402;51.374;6.594;2023-11-21T09:59:15;18.02;;;12.63;;
22470;SDS011;11402;51.374;6.594;2023-11-21T10:01:42;17.50;;;12.13;;
22470;SDS011;11402;51.374;6.594;2023-11-21T10:04:11;18.77;;;13.07;;
22470;SDS011;11402;51.374;6.594;2023-11-21T10:06:40;19.95;;;13.05;;
22470;SDS011;11402;51.374;6.594;2023-11-21T10:09:08;17.55;;;13.18;;
22470;SDS011;11402;51.374;6.594;2023-11-21T10:11:38;22.58;;;13.15;;
22470;SDS011;11402;51.374;6.594;2023-11-21T10:14:06;18.10;;;12.88;;
22470;SDS011;11402;51.374;6.594;2023-11-21T10:16:35;18.75;;;13.45;;
22470;SDS011;11402;51.374;6.594;2023-11-21T10:19:02;16.27;;;11.82;;
22470;SDS011;11402;51.374;6.594;2023-11-21T10:21:31;19.70;;;13.07;;
22470;SDS011;11402;51.374;6.594;2023-11-21T10:23:58;17.05;;;12.48;;
22470;SDS011;11402;51.374;6.594;2023-11-21T10:26:24;16.33;;;11.48;;
22470;SDS011;11402;51.374;6.594;2023-11-21T10:28:55;16.15;;;11.43;;
22470;SDS011;11402;51.374;6.594;2023-11-21T10:31:22;14.82;;;11.25;;
22470;SDS011;11402;51.374;6.594;2023-11-21T10:33:49;16.52;;;12.55;;
22470;SDS011;11402;51.374;6.594;2023-11-21T10:36:24;16.27;;;11.85;;
22470;SDS011;11402;51.374;6.594;2023-11-21T10:38:51;13.85;;;10.95;;
22470;SDS011;11402;51.374;6.594;2023-11-21T10:41:18;13.98;;;9.82;;
22470;SDS011;11402;51.374;6.594;2023-11-21T10:43:44;10.93;;;8.35;;
22470;SDS011;11402;51.374;6.594;2023-11-21T10:46:10;17.40;;;12.68;;
22470;SDS011;11402;51.374;6.594;2023-11-21T10:48:36;17.98;;;12.65;;
22470;SDS011;11402;51.374;6.594;2023-11-21T10:51:11;18.67;;;12.20;;
22470;SDS011;11402;51.374;6.594;2023-11-21T10:53:40;14.60;;;10.10;;
22470;SDS011;11402;51.374;6.594;2023-11-21T10:56:08;12.32;;;8.65;;
22470;SDS011;11402;51.374;6.594;2023-11-21T10:58:42;9.50;;;7.47;;
22470;SDS011;11402;51.374;6.594;2023-11-21T11:01:08;14.07;;;10.20;;
22470;SDS011;11402;51.374;6.594;2023-11-21T11:03:39;15.32;;;10.88;;
22470;SDS011;11402;51.374;6.594;2023-11-21T11:06:05;9.70;;;7.95;;
22470;SDS011;11402;51.374;6.594;2023-11-21T11:08:36;11.50;;;9.20;;
22470;SDS011;11402;51.374;6.594;2023-11-21T11:11:03;12.52;;;9.60;;
22470;SDS011;11402;51.374;6.594;2023-11-21T11:13:29;12.73;;;9.10;;
22470;SDS011;11402;51.374;6.594;2023-11-21T11:15:57;12.65;;;8.63;;
22470;SDS011;11402;51.374;6.594;2023-11-21T11:18:30;10.43;;;8.20;;
22470;SDS011;11402;51.374;6.594;2023-11-21T11:21:18;11.70;;;8.63;;
22470;SDS011;11402;51.374;6.594;2023-11-21T11:23:49;10.25;;;7.35;;
22470;SDS011;11402;51.374;6.594;2023-11-21T11:31:39;15.10;;;10.90;;
22470;SDS011;11402;51.374;6.594;2023-11-21T11:36:43;15.65;;;11.23;;
22470;SDS011;11402;51.374;6.594;2023-11-21T11:39:30;16.75;;;12.23;;
22470;SDS011;11402;51.374;6.594;2023-11-21T11:41:57;14.68;;;11.45;;
22470;SDS011;11402;51.374;6.594;2023-11-21T11:54:58;15.75;;;11.68;;
22470;SDS011;11402;51.374;6.594;2023-11-21T11:57:25;18.00;;;11.90;;
22470;SDS011;11402;51.374;6.594;2023-11-21T12:02:51;15.52;;;11.55;;
22470;SDS011;11402;51.374;6.594;2023-11-21T12:05:18;16.58;;;11.18;;
22470;SDS011;11402;51.374;6.594;2023-11-21T12:07:51;14.90;;;11.43;;
22470;SDS011;11402;51.374;6.594;2023-11-21T12:10:25;15.98;;;11.20;;
22470;SDS011;11402;51.374;6.594;2023-11-21T12:12:52;17.00;;;11.65;;
22470;SDS011;11402;51.374;6.594;2023-11-21T12:15:19;16.00;;;11.70;;
22470;SDS011;11402;51.374;6.594;2023-11-21T12:17:46;15.00;;;11.43;;
22470;SDS011;11402;51.374;6.594;2023-11-21T12:20:14;16.90;;;11.68;;
22470;SDS011;11402;51.374;6.594;2023-11-21T12:22:44;16.38;;;11.60;;
22470;SDS011;11402;51.374;6.594;2023-11-21T12:25:17;14.70;;;10.48;;
22470;SDS011;11402;51.374;6.594;2023-11-21T12:27:47;1.85;;;1.45;;
22470;SDS011;11402;51.374;6.594;2023-11-21T12:30:15;0.00;;;0.00;;
22470;SDS011;11402;51.374;6.594;2023-11-21T12:32:42;0.00;;;0.00;;
22470;SDS011;11402;51.374;6.594;2023-11-21T12:35:09;0.00;;;0.00;;
22470;SDS011;11402;51.374;6.594;2023-11-21T12:37:38;0.00;;;0.00;;
22470;SDS011;11402;51.374;6.594;2023-11-21T12:40:08;0.00;;;0.00;;
22470;SDS011;11402;51.374;6.594;2023-11-21T12:42:37;0.00;;;0.00;;
22470;SDS011;11402;51.374;6.594;2023-11-21T12:45:09;0.00;;;0.00;;
22470;SDS011;11402;51.374;6.594;2023-11-21T12:47:41;0.00;;;0.00;;
22470;SDS011;11402;51.374;6.594;2023-11-21T12:50:07;0.00;;;0.00;;
22470;SDS011;11402;51.374;6.594;2023-11-21T12:52:39;0.00;;;0.00;;
22470;SDS011;11402;51.374;6.594;2023-11-21T12:55:05;0.00;;;0.00;;
22470;SDS011;11402;51.374;6.594;2023-11-21T12:57:33;0.00;;;0.00;;
22470;SDS011;11402;51.374;6.594;2023-11-21T12:59:59;0.00;;;0.00;;
22470;SDS011;11402;51.374;6.594;2023-11-21T13:02:36;0.00;;;0.00;;
22470;SDS011;11402;51.374;6.594;2023-11-21T13:05:03;0.00;;;0.00;;
22470;SDS011;11402;51.374;6.594;2023-11-21T13:07:40;0.00;;;0.00;;
22470;SDS011;11402;51.374;6.594;2023-11-21T13:10:11;0.00;;;0.00;;
22470;SDS011;11402;51.374;6.594;2023-11-21T13:12:42;0.00;;;0.00;;
22470;SDS011;11402;51.374;6.594;2023-11-21T13:15:08;0.00;;;0.00;;
22470;SDS011;11402;51.374;6.594;2023-11-21T13:17:35;0.00;;;0.00;;
22470;SDS011;11402;51.374;6.594;2023-11-21T13:20:01;0.00;;;0.00;;
22470;SDS011;11402;51.374;6.594;2023-11-21T13:22:31;0.00;;;0.00;;
22470;SDS011;11402;51.374;6.594;2023-11-21T13:24:58;0.00;;;0.00;;
22470;SDS011;11402;51.374;6.594;2023-11-21T13:27:24;0.00;;;0.00;;
22470;SDS011;11402;51.374;6.594;2023-11-21T13:29:51;0.00;;;0.00;;
22470;SDS011;11402;51.374;6.594;2023-11-21T13:32:17;0.00;;;0.00;;
22470;SDS011;11402;51.374;6.594;2023-11-21T13:34:45;0.00;;;0.00;;
22470;SDS011;11402;51.374;6.594;2023-11-21T13:37:12;0.00;;;0.00;;
22470;SDS011;11402;51.374;6.594;2023-11-21T13:39:38;0.00;;;0.00;;
22470;SDS011;11402;51.374;6.594;2023-11-21T13:42:09;0.00;;;0.00;;
22470;SDS011;11402;51.374;6.594;2023-11-21T13:44:36;0.00;;;0.00;;
22470;SDS011;11402;51.374;6.594;2023-11-21T13:47:03;0.00;;;0.00;;
22470;SDS011;11402;51.374;6.594;2023-11-21T13:49:30;0.00;;;0.00;;
22470;SDS011;11402;51.374;6.594;2023-11-21T13:52:01;39.67;;;25.20;;
22470;SDS011;11402;51.374;6.594;2023-11-21T13:54:28;38.92;;;25.42;;
22470;SDS011;11402;51.374;6.594;2023-11-21T13:56:54;38.63;;;25.88;;
22470;SDS011;11402;51.374;6.594;2023-11-21T13:59:20;38.22;;;24.67;;
22470;SDS011;11402;51.374;6.594;2023-11-21T14:01:50;35.55;;;23.48;;
22470;SDS011;11402;51.374;6.594;2023-11-21T14:04:24;30.70;;;21.25;;
22470;SDS011;11402;51.374;6.594;2023-11-21T14:07:26;31.48;;;19.55;;
22470;SDS011;11402;51.374;6.594;2023-11-21T14:10:01;28.77;;;19.05;;
22470;SDS011;11402;51.374;6.594;2023-11-21T14:12:28;26.92;;;18.45;;
22470;SDS011;11402;51.374;6.594;2023-11-21T14:14:54;27.77;;;18.63;;
22470;SDS011;11402;51.374;6.594;2023-11-21T14:17:20;26.38;;;17.73;;
22470;SDS011;11402;51.374;6.594;2023-11-21T14:19:49;26.42;;;16.65;;
22470;SDS011;11402;51.374;6.594;2023-11-21T14:22:15;21.55;;;14.82;;
22470;SDS011;11402;51.374;6.594;2023-11-21T14:24:42;22.42;;;14.13;;
22470;SDS011;11402;51.374;6.594;2023-11-21T14:27:11;19.75;;;13.95;;
22470;SDS011;11402;51.374;6.594;2023-11-21T14:29:37;25.23;;;20.55;;
22470;SDS011;11402;51.374;6.594;2023-11-21T14:32:07;16.98;;;11.90;;
22470;SDS011;11402;51.374;6.594;2023-11-21T14:34:33;15.65;;;11.30;;
22470;SDS011;11402;51.374;6.594;2023-11-21T14:36:59;14.52;;;10.38;;
22470;SDS011;11402;51.374;6.594;2023-11-21T14:39:28;15.98;;;11.27;;
22470;SDS011;11402;51.374;6.594;2023-11-21T14:41:55;12.13;;;10.52;;
22470;SDS011;11402;51.374;6.594;2023-11-21T14:44:21;14.55;;;11.27;;
22470;SDS011;11402;51.374;6.594;2023-11-21T14:46:52;13.93;;;10.10;;
22470;SDS011;11402;51.374;6.594;2023-11-21T14:49:20;14.30;;;10.25;;
22470;SDS011;11402;51.374;6.594;2023-11-21T14:51:47;13.07;;;10.30;;
22470;SDS011;11402;51.374;6.594;2023-11-21T14:54:28;9.60;;;8.30;;